Wetterdaten: Woche 18.07.16 - 24.07.16 (KW29)
Datum Zeit Temp. Aussen Temp. o. S. +5cm Feuchte Auss BlattFeu 1 Luftdruck Regen Sonnenschein Regendauer Solar Windben Empfang
18.07.2016 00:00 18,1 C 16,1 C 14,4 C 87 % 1 lf 1021,0 hPa 0,0 l/m 0,00 h 0,00 h 0 W/m 0,0 km/h (0 Bft) 93,25 %
18.07.2016 01:00 16,9 C 15,2 C 13,6 C 89 % 4 lf 1021,0 hPa 0,0 l/m 0,00 h 0,00 h 0 W/m 0,0 km/h (0 Bft) 97,51 %
18.07.2016 02:00 16,0 C 14,4 C 13,2 C 91 % 14 lf 1020,9 hPa 0,0 l/m 0,00 h 0,00 h 0 W/m 0,0 km/h (0 Bft) 95,31 %
18.07.2016 03:00 15,3 C 14,3 C 12,8 C 92 % 15 lf 1020,6 hPa 0,0 l/m 0,00 h 0,00 h 0 W/m 0,0 km/h (0 Bft) 97,65 %
18.07.2016 04:00 14,8 C 13,8 C 12,4 C 93 % 15 lf 1020,5 hPa 0,0 l/m 0,00 h 0,00 h 0 W/m 0,0 km/h (0 Bft) 94,90 %
18.07.2016 05:00 14,3 C 13,7 C 12,2 C 93 % 15 lf 1020,6 hPa 0,0 l/m 0,10 h 0,00 h 24 W/m 0,8 km/h (0 Bft) 95,31 %
18.07.2016 06:00 14,2 C 14,1 C 12,6 C 95 % 15 lf 1020,7 hPa 0,0 l/m 1,00 h 0,00 h 86 W/m 0,0 km/h (0 Bft) 97,23 %
18.07.2016 07:00 15,1 C 16,2 C 14,2 C 97 % 15 lf 1020,7 hPa 0,0 l/m 1,00 h 0,00 h 231 W/m 0,3 km/h (0 Bft) 96,86 %
18.07.2016 08:00 17,4 C 22,6 C 17,1 C 98 % 8 lf 1020,8 hPa 0,0 l/m 1,00 h 0,00 h 385 W/m 6,3 km/h (2 Bft) 93,52 %
18.07.2016 09:00 20,6 C 30,8 C 20,4 C 94 % 0 lf 1020,9 hPa 0,0 l/m 1,00 h 0,00 h 556 W/m 10,2 km/h (2 Bft) 97,94 %
18.07.2016 10:00 24,9 C 33,3 C 29,8 C 76 % 0 lf 1020,9 hPa 0,0 l/m 1,00 h 0,00 h 705 W/m 12,9 km/h (3 Bft) 96,94 %
18.07.2016 11:00 26,9 C 34,1 C 30,6 C 68 % 0 lf 1021,0 hPa 0,0 l/m 0,80 h 0,00 h 701 W/m 10,7 km/h (2 Bft) 95,16 %
18.07.2016 12:00 27,0 C 32,5 C 29,3 C 65 % 0 lf 1021,0 hPa 0,0 l/m 0,50 h 0,00 h 534 W/m 10,6 km/h (2 Bft) 95,59 %
18.07.2016 13:00 28,2 C 35,3 C 29,7 C 60 % 0 lf 1020,8 hPa 0,0 l/m 0,93 h 0,00 h 955 W/m 14,9 km/h (3 Bft) 97,15 %
18.07.2016 14:00 28,8 C 35,1 C 32,7 C 56 % 0 lf 1020,6 hPa 0,0 l/m 0,73 h 0,00 h 702 W/m 13,0 km/h (3 Bft) 96,66 %
18.07.2016 15:00 29,1 C 33,7 C 33,5 C 55 % 0 lf 1020,5 hPa 0,0 l/m 0,40 h 0,00 h 489 W/m 11,2 km/h (2 Bft) 93,95 %
18.07.2016 16:00 28,2 C 31,6 C 29,9 C 57 % 0 lf 1020,1 hPa 0,0 l/m 0,37 h 0,00 h 364 W/m 10,0 km/h (2 Bft) 97,37 %
18.07.2016 17:00 28,3 C 30,7 C 27,6 C 56 % 0 lf 1019,9 hPa 0,0 l/m 0,33 h 0,00 h 261 W/m 9,0 km/h (2 Bft) 98,16 %
18.07.2016 18:00 27,9 C 29,2 C 27,0 C 58 % 0 lf 1019,8 hPa 0,0 l/m 0,63 h 0,00 h 308 W/m 8,7 km/h (2 Bft) 92,41 %
18.07.2016 19:00 27,6 C 27,9 C 25,9 C 60 % 0 lf 1019,7 hPa 0,0 l/m 1,00 h 0,00 h 227 W/m 10,6 km/h (2 Bft) 97,23 %
18.07.2016 20:00 26,7 C 26,2 C 24,2 C 63 % 0 lf 1019,7 hPa 0,0 l/m 1,00 h 0,00 h 89 W/m 9,2 km/h (2 Bft) 96,89 %
18.07.2016 21:00 25,0 C 23,6 C 19,7 C 66 % 0 lf 1020,0 hPa 0,0 l/m 0,47 h 0,00 h 24 W/m 6,7 km/h (2 Bft) 94,20 %
18.07.2016 22:00 22,9 C 20,4 C 17,5 C 74 % 0 lf 1020,3 hPa 0,0 l/m 0,00 h 0,00 h 0 W/m 1,1 km/h (0 Bft) 97,22 %
18.07.2016 23:00 21,0 C 19,0 C 16,6 C 79 % 0 lf 1020,6 hPa 0,0 l/m 0,00 h 0,00 h 0 W/m 0,6 km/h (0 Bft) 96,94 %
19.07.2016 00:00 19,6 C 17,9 C 15,8 C 81 % 0 lf 1020,9 hPa 0,0 l/m 0,00 h 0,00 h 0 W/m 0,8 km/h (0 Bft) 95,70 %
19.07.2016 01:00 18,6 C 16,9 C 15,1 C 84 % 0 lf 1020,9 hPa 0,0 l/m 0,00 h 0,00 h 0 W/m 0,0 km/h (0 Bft) 96,07 %
19.07.2016 02:00 17,7 C 16,1 C 14,5 C 86 % 1 lf 1020,7 hPa 0,0 l/m 0,00 h 0,00 h 0 W/m 0,0 km/h (0 Bft) 96,08 %
19.07.2016 03:00 16,9 C 15,6 C 14,0 C 88 % 1 lf 1020,5 hPa 0,0 l/m 0,00 h 0,00 h 0 W/m 0,0 km/h (0 Bft) 95,66 %
19.07.2016 04:00 16,2 C 14,9 C 13,6 C 90 % 1 lf 1020,4 hPa 0,0 l/m 0,00 h 0,00 h 0 W/m 0,0 km/h (0 Bft) 98,68 %
19.07.2016 05:00 15,7 C 14,4 C 13,3 C 90 % 1 lf 1020,2 hPa 0,0 l/m 0,07 h 0,00 h 17 W/m 0,0 km/h (0 Bft) 93,10 %
19.07.2016 06:00 15,3 C 15,2 C 13,7 C 91 % 1 lf 1020,4 hPa 0,0 l/m 1,00 h 0,00 h 70 W/m 0,0 km/h (0 Bft) 96,39 %
19.07.2016 07:00 16,2 C 18,3 C 15,9 C 95 % 0 lf 1020,6 hPa 0,0 l/m 1,00 h 0,00 h 210 W/m 3,6 km/h (1 Bft) 97,70 %
19.07.2016 08:00 19,1 C 22,7 C 18,8 C 92 % 0 lf 1020,7 hPa 0,0 l/m 1,00 h 0,00 h 373 W/m 9,9 km/h (2 Bft) 95,84 %
19.07.2016 09:00 22,8 C 29,4 C 21,9 C 81 % 0 lf 1020,6 hPa 0,0 l/m 1,00 h 0,00 h 531 W/m 11,7 km/h (2 Bft) 94,72 %
19.07.2016 10:00 26,2 C 32,3 C 31,3 C 70 % 0 lf 1020,5 hPa 0,0 l/m 1,00 h 0,00 h 677 W/m 13,8 km/h (3 Bft) 97,20 %
19.07.2016 11:00 28,6 C 34,3 C 34,0 C 61 % 0 lf 1020,3 hPa 0,0 l/m 1,00 h 0,00 h 798 W/m 15,7 km/h (3 Bft) 96,41 %
19.07.2016 12:00 30,0 C 36,3 C 34,4 C 53 % 0 lf 1020,0 hPa 0,0 l/m 0,83 h 0,00 h 712 W/m 14,9 km/h (3 Bft) 94,90 %
19.07.2016 13:00 31,2 C 37,2 C 31,6 C 50 % 0 lf 1019,8 hPa 0,0 l/m 1,00 h 0,00 h 1079 W/m 13,6 km/h (3 Bft) 95,45 %
19.07.2016 14:00 31,6 C 37,8 C 38,0 C 47 % 0 lf 1019,1 hPa 0,0 l/m 1,00 h 0,00 h 1200 W/m 13,5 km/h (3 Bft) 97,88 %
19.07.2016 15:00 32,2 C 37,1 C 41,3 C 45 % 0 lf 1018,8 hPa 0,0 l/m 1,00 h 0,00 h 887 W/m 16,4 km/h (3 Bft) 95,80 %
19.07.2016 16:00 32,1 C 36,5 C 40,6 C 45 % 0 lf 1018,3 hPa 0,0 l/m 1,00 h 0,00 h 696 W/m 11,9 km/h (2 Bft) 95,80 %
19.07.2016 17:00 32,2 C 34,9 C 31,5 C 45 % 0 lf 1017,7 hPa 0,0 l/m 1,00 h 0,00 h 564 W/m 13,3 km/h (3 Bft) 95,02 %
19.07.2016 18:00 31,3 C 31,4 C 28,7 C 47 % 0 lf 1017,3 hPa 0,0 l/m 1,00 h 0,00 h 412 W/m 12,0 km/h (2 Bft) 96,84 %
19.07.2016 19:00 30,4 C 30,4 C 27,4 C 49 % 0 lf 1017,1 hPa 0,0 l/m 1,00 h 0,00 h 244 W/m 11,5 km/h (2 Bft) 96,44 %
19.07.2016 20:00 29,5 C 28,9 C 25,3 C 52 % 0 lf 1016,9 hPa 0,0 l/m 0,67 h 0,00 h 81 W/m 9,0 km/h (2 Bft) 96,07 %
19.07.2016 21:00 27,9 C 25,9 C 21,9 C 59 % 0 lf 1016,8 hPa 0,0 l/m 0,23 h 0,00 h 16 W/m 2,9 km/h (1 Bft) 95,28 %
19.07.2016 22:00 25,4 C 23,0 C 20,2 C 67 % 0 lf 1016,8 hPa 0,0 l/m 0,00 h 0,00 h 5 W/m 0,3 km/h (0 Bft) 97,35 %
19.07.2016 23:00 23,4 C 21,6 C 19,0 C 73 % 0 lf 1016,8 hPa 0,0 l/m 0,00 h 0,00 h 5 W/m 0,7 km/h (0 Bft) 96,04 %
20.07.2016 00:00 21,9 C 20,1 C 18,0 C 79 % 0 lf 1016,4 hPa 0,0 l/m 0,00 h 0,00 h 5 W/m 0,9 km/h (0 Bft) 95,60 %
20.07.2016 01:00 20,7 C 19,0 C 17,2 C 82 % 0 lf 1016,3 hPa 0,0 l/m 0,00 h 0,00 h 5 W/m 0,0 km/h (0 Bft) 96,52 %
20.07.2016 02:00 19,7 C 18,4 C 16,7 C 84 % 1 lf 1016,0 hPa 0,0 l/m 0,00 h 0,00 h 5 W/m 0,0 km/h (0 Bft) 98,14 %
20.07.2016 03:00 18,9 C 18,0 C 16,1 C 86 % 1 lf 1015,6 hPa 0,0 l/m 0,00 h 0,00 h 5 W/m 2,7 km/h (1 Bft) 92,86 %
20.07.2016 04:00 18,4 C 18,1 C 15,6 C 89 % 1 lf 1015,4 hPa 0,0 l/m 0,00 h 0,00 h 5 W/m 4,7 km/h (1 Bft) 97,90 %
20.07.2016 05:00 18,2 C 18,3 C 15,9 C 91 % 1 lf 1014,9 hPa 0,0 l/m 0,00 h 0,00 h 8 W/m 7,6 km/h (2 Bft) 97,78 %
20.07.2016 06:00 18,4 C 18,8 C 16,6 C 90 % 0 lf 1014,8 hPa 0,0 l/m 0,97 h 0,00 h 65 W/m 8,2 km/h (2 Bft) 93,81 %
20.07.2016 07:00 19,3 C 20,4 C 18,2 C 87 % 0 lf 1014,5 hPa 0,0 l/m 1,00 h 0,00 h 225 W/m 11,3 km/h (2 Bft) 96,72 %
20.07.2016 08:00 21,4 C 24,4 C 20,3 C 81 % 0 lf 1014,1 hPa 0,0 l/m 1,00 h 0,00 h 391 W/m 14,9 km/h (3 Bft) 98,43 %
20.07.2016 09:00 24,8 C 30,8 C 23,3 C 70 % 0 lf 1013,7 hPa 0,0 l/m 1,00 h 0,00 h 553 W/m 19,1 km/h (3 Bft) 93,81 %
20.07.2016 10:00 28,0 C 33,8 C 33,0 C 60 % 0 lf 1013,1 hPa 0,0 l/m 1,00 h 0,00 h 695 W/m 23,1 km/h (4 Bft) 96,10 %
20.07.2016 11:00 30,2 C 35,4 C 35,6 C 56 % 0 lf 1012,5 hPa 0,0 l/m 1,00 h 0,00 h 804 W/m 21,3 km/h (4 Bft) 96,65 %
20.07.2016 12:00 32,2 C 37,6 C 36,4 C 51 % 0 lf 1011,8 hPa 0,0 l/m 0,80 h 0,00 h 703 W/m 24,3 km/h (4 Bft) 95,65 %
20.07.2016 13:00 33,6 C 38,2 C 34,2 C 47 % 0 lf 1011,2 hPa 0,0 l/m 1,00 h 0,00 h 904 W/m 24,1 km/h (4 Bft) 96,51 %
20.07.2016 14:00 34,4 C 38,8 C 41,0 C 46 % 0 lf 1010,7 hPa 0,0 l/m 1,00 h 0,00 h 872 W/m 24,3 km/h (4 Bft) 94,27 %
20.07.2016 15:00 35,1 C 39,0 C 43,8 C 45 % 0 lf 1010,2 hPa 0,0 l/m 1,00 h 0,00 h 792 W/m 25,5 km/h (4 Bft) 96,95 %
20.07.2016 16:00 35,0 C 37,4 C 38,8 C 44 % 0 lf 1009,7 hPa 0,0 l/m 0,43 h 0,00 h 413 W/m 20,5 km/h (4 Bft) 96,94 %
20.07.2016 17:00 35,3 C 38,2 C 35,5 C 43 % 0 lf 1009,6 hPa 0,0 l/m 0,97 h 0,00 h 500 W/m 20,3 km/h (4 Bft) 96,13 %
20.07.2016 18:00 33,5 C 33,7 C 32,2 C 48 % 0 lf 1009,8 hPa 0,0 l/m 0,37 h 0,00 h 216 W/m 29,2 km/h (5 Bft) 94,25 %
20.07.2016 19:00 31,7 C 31,4 C 29,9 C 55 % 0 lf 1010,1 hPa 0,0 l/m 0,00 h 0,00 h 98 W/m 13,9 km/h (3 Bft) 96,86 %
20.07.2016 20:00 30,1 C 29,0 C 27,2 C 60 % 0 lf 1010,1 hPa 0,0 l/m 0,00 h 0,00 h 26 W/m 7,1 km/h (2 Bft) 96,66 %
20.07.2016 21:00 28,8 C 27,5 C 25,1 C 63 % 0 lf 1010,3 hPa 0,0 l/m 0,00 h 0,03 h 10 W/m 1,5 km/h (1 Bft) 96,08 %
20.07.2016 22:00 27,7 C 26,5 C 24,1 C 66 % 0 lf 1010,7 hPa 0,0 l/m 0,00 h 0,00 h 5 W/m 3,4 km/h (1 Bft) 94,17 %
20.07.2016 23:00 26,6 C 25,5 C 22,8 C 66 % 0 lf 1011,2 hPa 0,0 l/m 0,00 h 0,00 h 5 W/m 4,3 km/h (1 Bft) 98,29 %
21.07.2016 00:00 25,4 C 23,9 C 21,6 C 70 % 1 lf 1011,5 hPa 0,0 l/m 0,00 h 0,13 h 5 W/m 5,5 km/h (1 Bft) 95,42 %
21.07.2016 01:00 24,2 C 22,5 C 20,2 C 75 % 0 lf 1011,5 hPa 0,0 l/m 0,00 h 0,00 h 5 W/m 2,3 km/h (1 Bft) 95,23 %
21.07.2016 02:00 22,9 C 21,3 C 19,4 C 80 % 0 lf 1011,6 hPa 0,0 l/m 0,00 h 0,00 h 4 W/m 0,3 km/h (0 Bft) 97,30 %
21.07.2016 03:00 21,9 C 20,8 C 19,4 C 83 % 0 lf 1011,9 hPa 0,0 l/m 0,00 h 0,00 h 5 W/m 0,0 km/h (0 Bft) 97,12 %
21.07.2016 04:00 21,4 C 20,8 C 19,1 C 86 % 0 lf 1012,3 hPa 0,0 l/m 0,00 h 0,00 h 5 W/m 4,6 km/h (1 Bft) 93,57 %
21.07.2016 05:00 21,1 C 20,3 C 18,8 C 88 % 1 lf 1012,4 hPa 0,0 l/m 0,00 h 0,00 h 7 W/m 3,5 km/h (1 Bft) 98,72 %
21.07.2016 06:00 20,7 C 20,6 C 19,1 C 90 % 1 lf 1012,6 hPa 0,0 l/m 0,13 h 0,00 h 42 W/m 8,1 km/h (2 Bft) 96,31 %
21.07.2016 07:00 20,8 C 21,7 C 20,2 C 89 % 0 lf 1013,1 hPa 0,0 l/m 0,17 h 0,00 h 114 W/m 6,4 km/h (2 Bft) 95,20 %
21.07.2016 08:00 21,6 C 24,9 C 21,1 C 85 % 0 lf 1013,5 hPa 0,0 l/m 1,00 h 0,00 h 354 W/m 14,2 km/h (3 Bft) 96,67 %
21.07.2016 09:00 23,8 C 29,9 C 23,2 C 73 % 0 lf 1013,7 hPa 0,0 l/m 1,00 h 0,00 h 487 W/m 16,9 km/h (3 Bft) 97,15 %
21.07.2016 10:00 25,8 C 32,9 C 30,1 C 68 % 0 lf 1013,8 hPa 0,0 l/m 0,95 h 0,00 h 626 W/m 16,9 km/h (3 Bft) 95,05 %
21.07.2016 11:00 27,9 C 35,9 C 33,0 C 63 % 0 lf 1013,8 hPa 0,0 l/m 1,00 h 0,00 h 781 W/m 15,8 km/h (3 Bft) 95,85 %
21.07.2016 12:00 29,4 C 37,3 C 34,4 C 56 % 0 lf 1013,7 hPa 0,0 l/m 0,83 h 0,00 h 701 W/m 15,3 km/h (3 Bft) 96,52 %
21.07.2016 13:00 30,5 C 37,8 C 32,1 C 52 % 0 lf 1013,6 hPa 0,0 l/m 1,00 h 0,00 h 847 W/m 17,1 km/h (3 Bft) 97,52 %
21.07.2016 14:00 31,2 C 38,3 C 37,3 C 53 % 0 lf 1013,7 hPa 0,0 l/m 1,00 h 0,00 h 823 W/m 14,2 km/h (3 Bft) 93,85 %
21.07.2016 15:00 30,8 C 37,2 C 38,4 C 54 % 0 lf 1013,3 hPa 0,0 l/m 0,93 h 0,00 h 726 W/m 17,1 km/h (3 Bft) 97,08 %
21.07.2016 16:00 30,9 C 35,1 C 35,6 C 53 % 0 lf 1013,2 hPa 0,0 l/m 0,70 h 0,00 h 507 W/m 12,2 km/h (2 Bft) 96,95 %
21.07.2016 17:00 30,1 C 32,9 C 30,5 C 55 % 0 lf 1013,7 hPa 0,0 l/m 0,47 h 0,00 h 342 W/m 11,0 km/h (2 Bft) 95,28 %
21.07.2016 18:00 29,1 C 30,3 C 28,6 C 58 % 0 lf 1013,8 hPa 0,0 l/m 0,27 h 0,00 h 214 W/m 10,2 km/h (2 Bft) 96,24 %
21.07.2016 19:00 28,6 C 29,3 C 27,6 C 61 % 0 lf 1013,6 hPa 0,0 l/m 1,00 h 0,00 h 228 W/m 11,0 km/h (2 Bft) 96,51 %
21.07.2016 20:00 27,8 C 27,2 C 25,7 C 64 % 0 lf 1013,8 hPa 0,0 l/m 0,37 h 0,00 h 73 W/m 9,0 km/h (2 Bft) 95,35 %
21.07.2016 21:00 26,4 C 25,1 C 23,7 C 69 % 0 lf 1014,5 hPa 0,0 l/m 0,00 h 0,00 h 12 W/m 9,9 km/h (2 Bft) 97,15 %
21.07.2016 22:00 24,9 C 23,9 C 22,8 C 75 % 0 lf 1015,0 hPa 0,0 l/m 0,00 h 0,00 h 5 W/m 10,9 km/h (2 Bft) 94,59 %
21.07.2016 23:00 23,9 C 23,1 C 21,9 C 78 % 0 lf 1015,1 hPa 0,0 l/m 0,00 h 0,00 h 5 W/m 9,2 km/h (2 Bft) 97,15 %
22.07.2016 00:00 23,1 C 22,4 C 21,1 C 80 % 0 lf 1014,9 hPa 0,0 l/m 0,00 h 0,00 h 5 W/m 7,4 km/h (2 Bft) 96,94 %
22.07.2016 01:00 22,4 C 21,6 C 20,5 C 82 % 0 lf 1015,0 hPa 0,0 l/m 0,00 h 0,00 h 5 W/m 6,2 km/h (2 Bft) 95,23 %
22.07.2016 02:00 21,8 C 21,1 C 19,9 C 84 % 0 lf 1015,1 hPa 0,0 l/m 0,00 h 0,00 h 5 W/m 5,2 km/h (1 Bft) 95,87 %
22.07.2016 03:00 21,3 C 20,1 C 18,9 C 86 % 1 lf 1014,8 hPa 0,0 l/m 0,00 h 0,00 h 5 W/m 3,9 km/h (1 Bft) 97,37 %
22.07.2016 04:00 20,4 C 19,0 C 17,8 C 87 % 1 lf 1014,8 hPa 0,0 l/m 0,00 h 0,00 h 5 W/m 0,3 km/h (0 Bft) 95,65 %
22.07.2016 05:00 19,8 C 18,9 C 17,8 C 89 % 1 lf 1014,6 hPa 0,0 l/m 0,00 h 0,00 h 7 W/m 1,0 km/h (0 Bft) 96,12 %
22.07.2016 06:00 19,7 C 19,6 C 18,5 C 91 % 1 lf 1014,5 hPa 0,0 l/m 0,00 h 0,00 h 27 W/m 5,2 km/h (1 Bft) 95,80 %
22.07.2016 07:00 20,2 C 21,4 C 20,2 C 92 % 0 lf 1014,9 hPa 0,0 l/m 0,33 h 0,00 h 103 W/m 6,9 km/h (2 Bft) 98,22 %
22.07.2016 08:00 20,9 C 23,1 C 21,2 C 91 % 0 lf 1015,2 hPa 0,0 l/m 0,47 h 0,00 h 207 W/m 12,1 km/h (2 Bft) 94,45 %
22.07.2016 09:00 22,1 C 25,1 C 23,1 C 88 % 0 lf 1015,5 hPa 0,0 l/m 0,77 h 0,00 h 311 W/m 17,1 km/h (3 Bft) 96,09 %
22.07.2016 10:00 21,6 C 22,2 C 21,0 C 85 % 3 lf 1015,7 hPa 0,0 l/m 0,00 h 0,20 h 141 W/m 22,2 km/h (4 Bft) 98,22 %
22.07.2016 11:00 21,2 C 23,5 C 22,0 C 82 % 0 lf 1015,8 hPa 0,0 l/m 0,27 h 0,00 h 283 W/m 21,6 km/h (4 Bft) 95,23 %
22.07.2016 12:00 23,3 C 30,6 C 26,4 C 76 % 0 lf 1015,7 hPa 0,0 l/m 0,97 h 0,00 h 669 W/m 23,1 km/h (4 Bft) 95,02 %
22.07.2016 13:00 25,7 C 33,6 C 26,9 C 68 % 0 lf 1015,3 hPa 0,0 l/m 1,00 h 0,00 h 844 W/m 19,3 km/h (3 Bft) 98,72 %
22.07.2016 14:00 27,4 C 35,7 C 32,5 C 62 % 0 lf 1015,2 hPa 0,0 l/m 1,00 h 0,00 h 826 W/m 16,4 km/h (3 Bft) 94,69 %
22.07.2016 15:00 28,0 C 34,9 C 33,9 C 61 % 0 lf 1015,0 hPa 0,0 l/m 1,00 h 0,00 h 746 W/m 18,0 km/h (3 Bft) 96,23 %
22.07.2016 16:00 28,2 C 31,2 C 29,6 C 59 % 0 lf 1014,9 hPa 0,0 l/m 0,77 h 0,00 h 399 W/m 18,0 km/h (3 Bft) 96,79 %
22.07.2016 17:00 28,4 C 31,7 C 28,6 C 58 % 0 lf 1014,4 hPa 0,0 l/m 0,93 h 0,00 h 496 W/m 18,5 km/h (3 Bft) 96,80 %
22.07.2016 18:00 27,8 C 28,9 C 26,7 C 59 % 0 lf 1014,5 hPa 0,0 l/m 1,00 h 0,00 h 371 W/m 18,0 km/h (3 Bft) 93,95 %
22.07.2016 19:00 26,8 C 27,0 C 24,8 C 63 % 0 lf 1014,5 hPa 0,0 l/m 0,67 h 0,07 h 173 W/m 20,3 km/h (4 Bft) 96,87 %
22.07.2016 20:00 25,3 C 25,0 C 23,5 C 71 % 0 lf 1015,0 hPa 0,0 l/m 0,30 h 0,00 h 67 W/m 19,4 km/h (3 Bft) 96,51 %
22.07.2016 21:00 24,0 C 23,4 C 22,1 C 77 % 0 lf 1015,5 hPa 0,0 l/m 0,33 h 0,00 h 20 W/m 17,8 km/h (3 Bft) 95,73 %
22.07.2016 22:00 22,9 C 22,3 C 21,0 C 81 % 0 lf 1015,9 hPa 0,0 l/m 0,00 h 0,00 h 0 W/m 10,8 km/h (2 Bft) 95,16 %
22.07.2016 23:00 22,2 C 21,6 C 20,5 C 84 % 0 lf 1015,8 hPa 0,0 l/m 0,00 h 0,00 h 5 W/m 9,2 km/h (2 Bft) 98,79 %
23.07.2016 00:00 21,7 C 21,1 C 20,0 C 86 % 0 lf 1016,0 hPa 0,0 l/m 0,00 h 0,00 h 5 W/m 3,6 km/h (1 Bft) 91,76 %
23.07.2016 01:00 21,3 C 20,6 C 19,4 C 87 % 0 lf 1015,9 hPa 0,0 l/m 0,00 h 0,00 h 5 W/m 5,2 km/h (1 Bft) 96,01 %
23.07.2016 02:00 20,9 C 20,2 C 19,1 C 89 % 1 lf 1015,6 hPa 0,0 l/m 0,00 h 0,00 h 5 W/m 5,5 km/h (1 Bft) 97,44 %
23.07.2016 03:00 20,5 C 19,5 C 18,6 C 91 % 1 lf 1015,7 hPa 0,0 l/m 0,00 h 0,00 h 5 W/m 6,8 km/h (2 Bft) 96,01 %
23.07.2016 04:00 20,0 C 19,2 C 18,0 C 93 % 1 lf 1015,7 hPa 0,0 l/m 0,00 h 0,00 h 5 W/m 7,1 km/h (2 Bft) 95,30 %
23.07.2016 05:00 19,6 C 18,9 C 17,8 C 94 % 2 lf 1015,7 hPa 0,0 l/m 0,00 h 0,00 h 6 W/m 4,8 km/h (1 Bft) 97,79 %
23.07.2016 06:00 19,3 C 19,1 C 18,0 C 94 % 2 lf 1015,8 hPa 0,0 l/m 0,13 h 0,00 h 41 W/m 6,8 km/h (2 Bft) 94,66 %
23.07.2016 07:00 19,5 C 20,2 C 19,1 C 95 % 1 lf 1016,1 hPa 0,0 l/m 0,00 h 0,00 h 88 W/m 10,6 km/h (2 Bft) 97,73 %
23.07.2016 08:00 19,9 C 20,7 C 19,5 C 95 % 1 lf 1016,3 hPa 0,0 l/m 0,00 h 0,00 h 96 W/m 13,9 km/h (3 Bft) 95,44 %
23.07.2016 09:00 20,0 C 20,6 C 19,5 C 94 % 1 lf 1016,7 hPa 0,0 l/m 0,00 h 0,00 h 90 W/m 16,7 km/h (3 Bft) 95,66 %
23.07.2016 10:00 20,1 C 21,6 C 20,5 C 93 % 0 lf 1017,0 hPa 0,0 l/m 0,00 h 0,03 h 140 W/m 12,3 km/h (3 Bft) 96,30 %
23.07.2016 11:00 21,1 C 23,5 C 22,2 C 89 % 0 lf 1017,3 hPa 0,0 l/m 0,00 h 0,10 h 254 W/m 14,5 km/h (3 Bft) 95,95 %
23.07.2016 12:00 21,9 C 25,0 C 23,3 C 86 % 0 lf 1017,6 hPa 0,0 l/m 0,20 h 0,00 h 351 W/m 14,8 km/h (3 Bft) 95,17 %
23.07.2016 13:00 22,8 C 26,5 C 25,1 C 83 % 0 lf 1017,7 hPa 0,0 l/m 0,17 h 0,00 h 372 W/m 12,6 km/h (3 Bft) 97,29 %
23.07.2016 14:00 23,7 C 28,3 C 27,0 C 81 % 0 lf 1017,6 hPa 0,0 l/m 0,73 h 0,00 h 483 W/m 12,7 km/h (3 Bft) 95,02 %
23.07.2016 15:00 24,9 C 30,1 C 29,0 C 78 % 0 lf 1017,6 hPa 0,0 l/m 1,00 h 0,00 h 512 W/m 11,7 km/h (2 Bft) 97,08 %
23.07.2016 16:00 25,9 C 30,9 C 29,9 C 75 % 0 lf 1017,2 hPa 0,0 l/m 1,00 h 0,00 h 526 W/m 12,5 km/h (3 Bft) 95,23 %
23.07.2016 17:00 26,7 C 31,0 C 28,3 C 71 % 0 lf 1016,8 hPa 0,0 l/m 0,93 h 0,00 h 481 W/m 9,5 km/h (2 Bft) 97,29 %
23.07.2016 18:00 26,4 C 26,6 C 24,9 C 72 % 5 lf 1016,8 hPa 5,6 l/m 0,27 h 0,30 h 208 W/m 14,6 km/h (3 Bft) 95,71 %
23.07.2016 19:00 23,7 C 21,4 C 20,4 C 86 % 15 lf 1016,9 hPa 0,8 l/m 0,10 h 0,47 h 95 W/m 5,9 km/h (2 Bft) 95,42 %
23.07.2016 20:00 22,4 C 20,9 C 19,8 C 91 % 15 lf 1017,2 hPa 0,0 l/m 0,00 h 0,00 h 41 W/m 3,0 km/h (1 Bft) 97,04 %
23.07.2016 21:00 21,5 C 19,8 C 19,1 C 92 % 15 lf 1017,5 hPa 0,0 l/m 0,37 h 0,00 h 17 W/m 4,8 km/h (1 Bft) 97,43 %
23.07.2016 22:00 20,7 C 19,2 C 18,3 C 94 % 15 lf 1017,9 hPa 0,0 l/m 0,00 h 0,03 h 5 W/m 2,8 km/h (1 Bft) 92,74 %
23.07.2016 23:00 20,0 C 18,5 C 17,7 C 94 % 15 lf 1018,2 hPa 0,0 l/m 0,00 h 0,00 h 0 W/m 0,2 km/h (0 Bft) 97,87 %
24.07.2016 00:00 19,4 C 18,0 C 17,1 C 95 % 15 lf 1018,3 hPa 0,0 l/m 0,00 h 0,00 h 0 W/m 0,9 km/h (0 Bft) 97,25 %
24.07.2016 01:00 18,8 C 17,5 C 16,6 C 95 % 15 lf 1018,3 hPa 0,0 l/m 0,00 h 0,00 h 5 W/m 1,3 km/h (1 Bft) 93,45 %
24.07.2016 02:00 18,3 C 17,1 C 16,1 C 96 % 15 lf 1018,4 hPa 0,0 l/m 0,00 h 0,00 h 5 W/m 1,7 km/h (1 Bft) 97,58 %
24.07.2016 03:00 17,9 C 16,7 C 15,9 C 96 % 15 lf 1018,5 hPa 0,0 l/m 0,00 h 0,00 h 5 W/m 0,3 km/h (0 Bft) 98,14 %
24.07.2016 04:00 17,5 C 16,5 C 15,6 C 96 % 15 lf 1018,3 hPa 0,0 l/m 0,00 h 0,00 h 5 W/m 2,2 km/h (1 Bft) 94,45 %
24.07.2016 05:00 17,2 C 16,4 C 15,4 C 97 % 15 lf 1018,3 hPa 0,0 l/m 0,00 h 0,00 h 11 W/m 4,8 km/h (1 Bft) 97,08 %
24.07.2016 06:00 17,7 C 17,8 C 16,9 C 98 % 15 lf 1018,5 hPa 0,2 l/m 0,00 h 0,03 h 25 W/m 5,5 km/h (1 Bft) 96,86 %
24.07.2016 07:00 18,7 C 18,8 C 17,9 C 99 % 15 lf 1018,5 hPa 0,0 l/m 0,00 h 0,00 h 50 W/m 8,1 km/h (2 Bft) 95,87 %
24.07.2016 08:00 19,3 C 19,5 C 18,8 C 99 % 15 lf 1018,7 hPa 0,0 l/m 0,00 h 0,00 h 111 W/m 7,3 km/h (2 Bft) 96,16 %
24.07.2016 09:00 19,9 C 21,3 C 21,1 C 99 % 11 lf 1019,1 hPa 0,0 l/m 0,37 h 0,00 h 239 W/m 8,5 km/h (2 Bft) 95,87 %
24.07.2016 10:00 20,9 C 26,3 C 24,3 C 99 % 0 lf 1019,1 hPa 0,0 l/m 0,70 h 0,00 h 408 W/m 9,9 km/h (2 Bft) 96,22 %
24.07.2016 11:00 22,8 C 28,9 C 26,3 C 89 % 0 lf 1019,1 hPa 0,0 l/m 0,80 h 0,00 h 507 W/m 11,0 km/h (2 Bft) 97,30 %
24.07.2016 12:00 23,8 C 29,5 C 25,7 C 83 % 0 lf 1019,0 hPa 0,0 l/m 0,57 h 0,00 h 490 W/m 10,4 km/h (2 Bft) 94,81 %
24.07.2016 13:00 25,3 C 33,2 C 27,1 C 78 % 0 lf 1018,9 hPa 0,0 l/m 0,87 h 0,00 h 739 W/m 13,3 km/h (3 Bft) 97,86 %
24.07.2016 14:00 25,9 C 34,8 C 31,0 C 74 % 0 lf 1018,7 hPa 0,0 l/m 1,00 h 0,00 h 843 W/m 12,0 km/h (2 Bft) 95,80 %
24.07.2016 15:00 26,6 C 34,0 C 31,9 C 71 % 0 lf 1018,3 hPa 0,0 l/m 0,97 h 0,00 h 696 W/m 10,4 km/h (2 Bft) 95,23 %
24.07.2016 16:00 27,4 C 33,4 C 31,9 C 67 % 0 lf 1018,0 hPa 0,0 l/m 1,00 h 0,00 h 626 W/m 10,8 km/h (2 Bft) 96,44 %
24.07.2016 17:00 27,6 C 31,8 C 28,0 C 63 % 0 lf 1017,7 hPa 0,0 l/m 1,00 h 0,00 h 498 W/m 9,9 km/h (2 Bft) 95,94 %
24.07.2016 18:00 27,1 C 28,1 C 25,7 C 62 % 0 lf 1017,4 hPa 0,0 l/m 1,00 h 0,00 h 347 W/m 8,4 km/h (2 Bft) 96,45 %
24.07.2016 19:00 26,5 C 26,9 C 24,6 C 62 % 0 lf 1017,2 hPa 0,0 l/m 0,77 h 0,00 h 159 W/m 5,7 km/h (1 Bft) 97,01 %
24.07.2016 20:00 25,9 C 25,3 C 23,2 C 67 % 0 lf 1017,3 hPa 0,0 l/m 0,63 h 0,00 h 71 W/m 1,0 km/h (0 Bft) 95,50 %
24.07.2016 21:00 24,8 C 22,9 C 20,7 C 74 % 0 lf 1017,4 hPa 0,0 l/m 0,37 h 0,00 h 18 W/m 0,0 km/h (0 Bft) 98,28 %
24.07.2016 22:00 23,1 C 21,1 C 19,1 C 80 % 0 lf 1017,8 hPa 0,0 l/m 0,00 h 0,00 h 5 W/m 0,0 km/h (0 Bft) 95,02 %
24.07.2016 23:00 21,8 C 20,5 C 18,7 C 84 % 0 lf 1017,9 hPa 0,0 l/m 0,00 h 0,00 h 5 W/m 2,0 km/h (1 Bft) 96,45 %
Min-Datum _ 18.07.16 18.07.16 18.07.16 20.07.16 18.07.16 20.07.16 - - - - 18.07.16 23.07.16
_ Min-Zeit 05:30 04:22 04:12 16:48 00:00 17:44 - - - - 00:00 00:02
Minimum _ 14,2 C 13,3 C 12,2 C 41 % 0 lf 1009,4 hPa - - - - 0,0 km/h (0 Bft) 13,33 %
Max-Datum _ 20.07.16 19.07.16 20.07.16 18.07.16 18.07.16 18.07.16 23.07.16 18.07.16 20.07.16 19.07.16 20.07.16 18.07.16
_ Max-Zeit 17:26 14:32 15:44 08:44 02:28 01:06 18:56 05:54 21:40 14:10 18:26 01:08
Maximum _ 35,5 C 41,7 C 45,0 C 99 % 15 lf 1021,1 hPa 5,6 l/m 0,03 h 0,03 h 1420 W/m 41,8 km/h
W-SW (6 Bft)
100,00 %
Durchschnitt _ 23,9 C 25,5 C 23,6 C 76 % 2 lf 1016,5 hPa #6,6 l/m #74:09 h #1:24 h 293 W/m 9,2 km/h (2 Bft) 96,14 %
© 2016 W. Hausmann